sensor_id;sensor_type;location;lat;lon;timestamp;pressure;altitude;pressure_sealevel;temperature
70668;BMP280;58242;51.250;-1.118;2022-07-17T00:01:13;101277.06;;;26.16
70668;BMP280;58242;51.250;-1.118;2022-07-17T00:03:38;101281.00;;;26.12
70668;BMP280;58242;51.250;-1.118;2022-07-17T00:06:04;101284.94;;;26.08
70668;BMP280;58242;51.250;-1.118;2022-07-17T00:08:30;101289.66;;;26.04
70668;BMP280;58242;51.250;-1.118;2022-07-17T00:10:57;101303.38;;;26.00
70668;BMP280;58242;51.250;-1.118;2022-07-17T00:13:23;101299.06;;;25.96
70668;BMP280;58242;51.250;-1.118;2022-07-17T00:15:49;101294.38;;;25.93
70668;BMP280;58242;51.250;-1.118;2022-07-17T00:18:14;101285.78;;;25.88
70668;BMP280;58242;51.250;-1.118;2022-07-17T00:20:40;101281.84;;;25.82
70668;BMP280;58242;51.250;-1.118;2022-07-17T00:23:05;101275.59;;;25.74
70668;BMP280;58242;51.250;-1.118;2022-07-17T00:25:31;101264.25;;;25.69
70668;BMP280;58242;51.250;-1.118;2022-07-17T00:27:58;101268.19;;;25.65
70668;BMP280;58242;51.250;-1.118;2022-07-17T00:30:23;101265.44;;;25.61
70668;BMP280;58242;51.250;-1.118;2022-07-17T00:32:49;101263.88;;;25.57
70668;BMP280;58242;51.250;-1.118;2022-07-17T00:35:14;101271.72;;;25.55
70668;BMP280;58242;51.250;-1.118;2022-07-17T00:37:41;101269.75;;;25.52
70668;BMP280;58242;51.250;-1.118;2022-07-17T00:40:08;101258.81;;;25.49
70668;BMP280;58242;51.250;-1.118;2022-07-17T00:42:34;101256.88;;;25.46
70668;BMP280;58242;51.250;-1.118;2022-07-17T00:44:59;101258.81;;;25.42
70668;BMP280;58242;51.250;-1.118;2022-07-17T00:47:24;101253.34;;;25.38
70668;BMP280;58242;51.250;-1.118;2022-07-17T00:49:50;101233.03;;;25.33
70668;BMP280;58242;51.250;-1.118;2022-07-17T00:52:16;101232.25;;;25.29
70668;BMP280;58242;51.250;-1.118;2022-07-17T00:54:43;101233.81;;;25.26
70668;BMP280;58242;51.250;-1.118;2022-07-17T00:57:11;101228.72;;;25.21
70668;BMP280;58242;51.250;-1.118;2022-07-17T00:59:37;101245.13;;;25.18
70668;BMP280;58242;51.250;-1.118;2022-07-17T01:02:08;101229.47;;;25.15
70668;BMP280;58242;51.250;-1.118;2022-07-17T01:04:34;101236.53;;;25.09
70668;BMP280;58242;51.250;-1.118;2022-07-17T01:07:01;101243.19;;;25.05
70668;BMP280;58242;51.250;-1.118;2022-07-17T01:09:28;101242.78;;;25.00
70668;BMP280;58242;51.250;-1.118;2022-07-17T01:11:54;101234.97;;;24.95
70668;BMP280;58242;51.250;-1.118;2022-07-17T01:14:21;101238.09;;;24.90
70668;BMP280;58242;51.250;-1.118;2022-07-17T01:16:47;101234.16;;;24.84
70668;BMP280;58242;51.250;-1.118;2022-07-17T01:19:12;101236.50;;;24.79
70668;BMP280;58242;51.250;-1.118;2022-07-17T01:21:45;101241.19;;;24.75
70668;BMP280;58242;51.250;-1.118;2022-07-17T01:24:11;101235.31;;;24.69
70668;BMP280;58242;51.250;-1.118;2022-07-17T01:26:39;101237.25;;;24.66
70668;BMP280;58242;51.250;-1.118;2022-07-17T01:29:05;101230.22;;;24.61
70668;BMP280;58242;51.250;-1.118;2022-07-17T01:31:31;101225.53;;;24.58
70668;BMP280;58242;51.250;-1.118;2022-07-17T01:33:56;101225.53;;;24.55
70668;BMP280;58242;51.250;-1.118;2022-07-17T01:36:23;101217.72;;;24.53
70668;BMP280;58242;51.250;-1.118;2022-07-17T01:38:49;101220.41;;;24.50
70668;BMP280;58242;51.250;-1.118;2022-07-17T01:41:15;101219.59;;;24.46
70668;BMP280;58242;51.250;-1.118;2022-07-17T01:43:40;101228.59;;;24.43
70668;BMP280;58242;51.250;-1.118;2022-07-17T01:46:06;101216.88;;;24.39
70668;BMP280;58242;51.250;-1.118;2022-07-17T01:48:31;101228.56;;;24.36
70668;BMP280;58242;51.250;-1.118;2022-07-17T01:50:57;101229.34;;;24.34
70668;BMP280;58242;51.250;-1.118;2022-07-17T01:53:22;101231.31;;;24.30
70668;BMP280;58242;51.250;-1.118;2022-07-17T01:55:48;101232.06;;;24.27
70668;BMP280;58242;51.250;-1.118;2022-07-17T01:58:13;101228.56;;;24.23
70668;BMP280;58242;51.250;-1.118;2022-07-17T02:00:39;101235.53;;;24.20
70668;BMP280;58242;51.250;-1.118;2022-07-17T02:03:05;101240.63;;;24.18
70668;BMP280;58242;51.250;-1.118;2022-07-17T02:05:30;101237.88;;;24.15
70668;BMP280;58242;51.250;-1.118;2022-07-17T02:07:56;101242.56;;;24.11
70668;BMP280;58242;51.250;-1.118;2022-07-17T02:10:22;101245.28;;;24.08
70668;BMP280;58242;51.250;-1.118;2022-07-17T02:12:47;101246.81;;;24.05
70668;BMP280;58242;51.250;-1.118;2022-07-17T02:15:13;101249.16;;;24.03
70668;BMP280;58242;51.250;-1.118;2022-07-17T02:17:39;101242.09;;;23.99
70668;BMP280;58242;51.250;-1.118;2022-07-17T02:20:06;101247.94;;;23.94
70668;BMP280;58242;51.250;-1.118;2022-07-17T02:22:33;101254.13;;;23.88
70668;BMP280;58242;51.250;-1.118;2022-07-17T02:24:58;101254.09;;;23.84
70668;BMP280;58242;51.250;-1.118;2022-07-17T02:27:24;101245.88;;;23.81
70668;BMP280;58242;51.250;-1.118;2022-07-17T02:29:49;101246.25;;;23.76
70668;BMP280;58242;51.250;-1.118;2022-07-17T02:32:14;101252.84;;;23.72
70668;BMP280;58242;51.250;-1.118;2022-07-17T02:34:40;101246.22;;;23.69
70668;BMP280;58242;51.250;-1.118;2022-07-17T02:37:06;101244.63;;;23.65
70668;BMP280;58242;51.250;-1.118;2022-07-17T02:39:31;101245.38;;;23.62
70668;BMP280;58242;51.250;-1.118;2022-07-17T02:41:57;101239.91;;;23.59
70668;BMP280;58242;51.250;-1.118;2022-07-17T02:44:23;101237.53;;;23.54
70668;BMP280;58242;51.250;-1.118;2022-07-17T02:46:48;101232.41;;;23.49
70668;BMP280;58242;51.250;-1.118;2022-07-17T02:49:13;101232.03;;;23.47
70668;BMP280;58242;51.250;-1.118;2022-07-17T02:51:39;101237.06;;;23.42
70668;BMP280;58242;51.250;-1.118;2022-07-17T02:54:04;101235.47;;;23.41
70668;BMP280;58242;51.250;-1.118;2022-07-17T02:56:30;101228.84;;;23.38
70668;BMP280;58242;51.250;-1.118;2022-07-17T02:58:55;101226.09;;;23.35
70668;BMP280;58242;51.250;-1.118;2022-07-17T03:01:20;101232.69;;;23.31
70668;BMP280;58242;51.250;-1.118;2022-07-17T03:03:46;101232.66;;;23.27
70668;BMP280;58242;51.250;-1.118;2022-07-17T03:06:11;101220.94;;;23.23
70668;BMP280;58242;51.250;-1.118;2022-07-17T03:08:37;101224.03;;;23.22
70668;BMP280;58242;51.250;-1.118;2022-07-17T03:11:02;101231.81;;;23.20
70668;BMP280;58242;51.250;-1.118;2022-07-17T03:13:28;101233.72;;;23.16
70668;BMP280;58242;51.250;-1.118;2022-07-17T03:15:53;101230.59;;;23.14
70668;BMP280;58242;51.250;-1.118;2022-07-17T03:18:18;101229.38;;;23.12
70668;BMP280;58242;51.250;-1.118;2022-07-17T03:20:44;101230.94;;;23.09
70668;BMP280;58242;51.250;-1.118;2022-07-17T03:23:09;101238.69;;;23.07
70668;BMP280;58242;51.250;-1.118;2022-07-17T03:25:35;101251.97;;;23.05
70668;BMP280;58242;51.250;-1.118;2022-07-17T03:28:00;101250.75;;;23.03
70668;BMP280;58242;51.250;-1.118;2022-07-17T03:30:26;101251.94;;;23.02
70668;BMP280;58242;51.250;-1.118;2022-07-17T03:32:51;101257.38;;;23.02
70668;BMP280;58242;51.250;-1.118;2022-07-17T03:35:17;101255.03;;;23.00
70668;BMP280;58242;51.250;-1.118;2022-07-17T03:37:42;101258.16;;;22.99
70668;BMP280;58242;51.250;-1.118;2022-07-17T03:40:10;101256.16;;;22.99
70668;BMP280;58242;51.250;-1.118;2022-07-17T03:42:35;101247.59;;;22.97
70668;BMP280;58242;51.250;-1.118;2022-07-17T03:45:01;101260.81;;;22.96
70668;BMP280;58242;51.250;-1.118;2022-07-17T03:47:26;101254.59;;;22.95
70668;BMP280;58242;51.250;-1.118;2022-07-17T03:49:52;101260.41;;;22.94
70668;BMP280;58242;51.250;-1.118;2022-07-17T03:52:17;101256.50;;;22.91
70668;BMP280;58242;51.250;-1.118;2022-07-17T03:54:43;101252.56;;;22.89
70668;BMP280;58242;51.250;-1.118;2022-07-17T03:57:08;101255.66;;;22.84
70668;BMP280;58242;51.250;-1.118;2022-07-17T03:59:33;101250.94;;;22.81
70668;BMP280;58242;51.250;-1.118;2022-07-17T04:01:59;101247.00;;;22.75
70668;BMP280;58242;51.250;-1.118;2022-07-17T04:04:24;101252.03;;;22.73
70668;BMP280;58242;51.250;-1.118;2022-07-17T04:06:50;101253.94;;;22.69
70668;BMP280;58242;51.250;-1.118;2022-07-17T04:09:15;101248.06;;;22.64
70668;BMP280;58242;51.250;-1.118;2022-07-17T04:11:41;101253.47;;;22.61
70668;BMP280;58242;51.250;-1.118;2022-07-17T04:14:06;101244.47;;;22.57
70668;BMP280;58242;51.250;-1.118;2022-07-17T04:16:31;101255.34;;;22.53
70668;BMP280;58242;51.250;-1.118;2022-07-17T04:18:57;101239.69;;;22.50
70668;BMP280;58242;51.250;-1.118;2022-07-17T04:21:22;101228.75;;;22.47
70668;BMP280;58242;51.250;-1.118;2022-07-17T04:23:48;101226.38;;;22.42
70668;BMP280;58242;51.250;-1.118;2022-07-17T04:26:13;101229.06;;;22.39
70668;BMP280;58242;51.250;-1.118;2022-07-17T04:28:39;101229.44;;;22.37
70668;BMP280;58242;51.250;-1.118;2022-07-17T04:31:04;101229.00;;;22.35
70668;BMP280;58242;51.250;-1.118;2022-07-17T04:33:30;101238.38;;;22.34
70668;BMP280;58242;51.250;-1.118;2022-07-17T04:35:55;101234.06;;;22.33
70668;BMP280;58242;51.250;-1.118;2022-07-17T04:38:21;101237.56;;;22.34
70668;BMP280;58242;51.250;-1.118;2022-07-17T04:40:46;101238.72;;;22.33
70668;BMP280;58242;51.250;-1.118;2022-07-17T04:43:12;101239.50;;;22.33
70668;BMP280;58242;51.250;-1.118;2022-07-17T04:45:37;101232.50;;;22.32
70668;BMP280;58242;51.250;-1.118;2022-07-17T04:48:03;101230.56;;;22.33
70668;BMP280;58242;51.250;-1.118;2022-07-17T04:50:29;101238.38;;;22.34
70668;BMP280;58242;51.250;-1.118;2022-07-17T04:52:54;101235.63;;;22.34
70668;BMP280;58242;51.250;-1.118;2022-07-17T04:55:20;101226.28;;;22.35
70668;BMP280;58242;51.250;-1.118;2022-07-17T04:57:45;101229.44;;;22.37
70668;BMP280;58242;51.250;-1.118;2022-07-17T05:00:12;101232.94;;;22.38
70668;BMP280;58242;51.250;-1.118;2022-07-17T05:02:37;101238.00;;;22.39
70668;BMP280;58242;51.250;-1.118;2022-07-17T05:05:03;101236.50;;;22.42
70668;BMP280;58242;51.250;-1.118;2022-07-17T05:07:29;101243.50;;;22.43
70668;BMP280;58242;51.250;-1.118;2022-07-17T05:09:54;101240.84;;;22.46
70668;BMP280;58242;51.250;-1.118;2022-07-17T05:12:20;101238.13;;;22.49
70668;BMP280;58242;51.250;-1.118;2022-07-17T05:14:45;101246.38;;;22.53
70668;BMP280;58242;51.250;-1.118;2022-07-17T05:17:11;101242.16;;;22.59
70668;BMP280;58242;51.250;-1.118;2022-07-17T05:19:37;101239.44;;;22.62
70668;BMP280;58242;51.250;-1.118;2022-07-17T05:22:03;101239.91;;;22.67
70668;BMP280;58242;51.250;-1.118;2022-07-17T05:24:28;101234.50;;;22.71
70668;BMP280;58242;51.250;-1.118;2022-07-17T05:26:54;101236.88;;;22.76
70668;BMP280;58242;51.250;-1.118;2022-07-17T05:29:20;101233.78;;;22.80
70668;BMP280;58242;51.250;-1.118;2022-07-17T05:31:45;101231.50;;;22.86
70668;BMP280;58242;51.250;-1.118;2022-07-17T05:34:11;101234.69;;;22.91
70668;BMP280;58242;51.250;-1.118;2022-07-17T05:36:36;101232.00;;;22.95
70668;BMP280;58242;51.250;-1.118;2022-07-17T05:39:01;101225.41;;;22.99
70668;BMP280;58242;51.250;-1.118;2022-07-17T05:41:27;101224.25;;;23.03
70668;BMP280;58242;51.250;-1.118;2022-07-17T05:43:52;101223.91;;;23.08
70668;BMP280;58242;51.250;-1.118;2022-07-17T05:46:18;101236.06;;;23.14
70668;BMP280;58242;51.250;-1.118;2022-07-17T05:48:43;101236.13;;;23.21
70668;BMP280;58242;51.250;-1.118;2022-07-17T05:51:08;101242.78;;;23.27
70668;BMP280;58242;51.250;-1.118;2022-07-17T05:53:34;101244.41;;;23.31
70668;BMP280;58242;51.250;-1.118;2022-07-17T05:55:59;101238.97;;;23.34
70668;BMP280;58242;51.250;-1.118;2022-07-17T05:58:25;101246.41;;;23.41
70668;BMP280;58242;51.250;-1.118;2022-07-17T06:00:50;101240.22;;;23.47
70668;BMP280;58242;51.250;-1.118;2022-07-17T06:03:16;101251.56;;;23.56
70668;BMP280;58242;51.250;-1.118;2022-07-17T06:05:42;101246.97;;;23.63
70668;BMP280;58242;51.250;-1.118;2022-07-17T06:08:07;101244.28;;;23.70
70668;BMP280;58242;51.250;-1.118;2022-07-17T06:10:34;101245.09;;;23.77
70668;BMP280;58242;51.250;-1.118;2022-07-17T06:12:59;101247.88;;;23.87
70668;BMP280;58242;51.250;-1.118;2022-07-17T06:15:25;101246.41;;;23.97
70668;BMP280;58242;51.250;-1.118;2022-07-17T06:17:50;101249.53;;;24.05
70668;BMP280;58242;51.250;-1.118;2022-07-17T06:20:16;101243.34;;;24.15
70668;BMP280;58242;51.250;-1.118;2022-07-17T06:22:43;101235.56;;;24.24
70668;BMP280;58242;51.250;-1.118;2022-07-17T06:25:09;101247.34;;;24.35
70668;BMP280;58242;51.250;-1.118;2022-07-17T06:27:34;101239.53;;;24.43
70668;BMP280;58242;51.250;-1.118;2022-07-17T06:30:00;101232.94;;;24.54
70668;BMP280;58242;51.250;-1.118;2022-07-17T06:32:25;101225.53;;;24.65
70668;BMP280;58242;51.250;-1.118;2022-07-17T06:34:51;101232.22;;;24.78
70668;BMP280;58242;51.250;-1.118;2022-07-17T06:37:16;101224.41;;;24.90
70668;BMP280;58242;51.250;-1.118;2022-07-17T06:39:42;101234.19;;;25.01
70668;BMP280;58242;51.250;-1.118;2022-07-17T06:42:07;101239.63;;;25.15
70668;BMP280;58242;51.250;-1.118;2022-07-17T06:44:33;101235.75;;;25.29
70668;BMP280;58242;51.250;-1.118;2022-07-17T06:46:59;101227.91;;;25.45
70668;BMP280;58242;51.250;-1.118;2022-07-17T06:49:25;101232.97;;;25.60
70668;BMP280;58242;51.250;-1.118;2022-07-17T06:51:50;101230.22;;;25.73
70668;BMP280;58242;51.250;-1.118;2022-07-17T06:54:15;101230.59;;;25.89
70668;BMP280;58242;51.250;-1.118;2022-07-17T06:56:41;101244.22;;;26.03
70668;BMP280;58242;51.250;-1.118;2022-07-17T06:59:07;101234.78;;;26.14
70668;BMP280;58242;51.250;-1.118;2022-07-17T07:01:33;101240.19;;;26.24
70668;BMP280;58242;51.250;-1.118;2022-07-17T07:03:59;101244.47;;;26.42
70668;BMP280;58242;51.250;-1.118;2022-07-17T07:06:24;101246.16;;;26.82
70668;BMP280;58242;51.250;-1.118;2022-07-17T07:08:50;101253.13;;;27.43
70668;BMP280;58242;51.250;-1.118;2022-07-17T07:11:15;101242.53;;;28.17
70668;BMP280;58242;51.250;-1.118;2022-07-17T07:13:40;101248.94;;;28.91
70668;BMP280;58242;51.250;-1.118;2022-07-17T07:16:06;101252.47;;;29.62
70668;BMP280;58242;51.250;-1.118;2022-07-17T07:18:31;101249.91;;;30.31
70668;BMP280;58242;51.250;-1.118;2022-07-17T07:20:57;101251.63;;;30.94
70668;BMP280;58242;51.250;-1.118;2022-07-17T07:23:22;101255.09;;;31.60
70668;BMP280;58242;51.250;-1.118;2022-07-17T07:25:47;101258.34;;;32.27
70668;BMP280;58242;51.250;-1.118;2022-07-17T07:28:13;101258.69;;;32.93
70668;BMP280;58242;51.250;-1.118;2022-07-17T07:30:38;101268.16;;;33.52
70668;BMP280;58242;51.250;-1.118;2022-07-17T07:33:03;101274.97;;;34.05
70668;BMP280;58242;51.250;-1.118;2022-07-17T07:35:29;101266.44;;;34.63
70668;BMP280;58242;51.250;-1.118;2022-07-17T07:37:54;101270.41;;;35.21
70668;BMP280;58242;51.250;-1.118;2022-07-17T07:40:20;101269.28;;;35.75
70668;BMP280;58242;51.250;-1.118;2022-07-17T07:42:45;101264.66;;;36.24
70668;BMP280;58242;51.250;-1.118;2022-07-17T07:45:11;101265.81;;;36.67
70668;BMP280;58242;51.250;-1.118;2022-07-17T07:47:41;101268.13;;;37.09
70668;BMP280;58242;51.250;-1.118;2022-07-17T07:50:07;101270.19;;;37.54
70668;BMP280;58242;51.250;-1.118;2022-07-17T07:52:32;101266.47;;;37.94
70668;BMP280;58242;51.250;-1.118;2022-07-17T07:54:57;101260.88;;;38.31
70668;BMP280;58242;51.250;-1.118;2022-07-17T07:57:23;101253.94;;;38.69
70668;BMP280;58242;51.250;-1.118;2022-07-17T07:59:48;101259.59;;;39.02
70668;BMP280;58242;51.250;-1.118;2022-07-17T08:02:14;101255.28;;;39.40
70668;BMP280;58242;51.250;-1.118;2022-07-17T08:04:39;101254.53;;;39.78
70668;BMP280;58242;51.250;-1.118;2022-07-17T08:07:04;101255.28;;;40.18
70668;BMP280;58242;51.250;-1.118;2022-07-17T08:09:30;101253.03;;;40.46
70668;BMP280;58242;51.250;-1.118;2022-07-17T08:11:55;101250.31;;;40.82
70668;BMP280;58242;51.250;-1.118;2022-07-17T08:14:20;101254.00;;;40.98
70668;BMP280;58242;51.250;-1.118;2022-07-17T08:16:46;101247.25;;;41.15
70668;BMP280;58242;51.250;-1.118;2022-07-17T08:19:11;101249.69;;;41.44
70668;BMP280;58242;51.250;-1.118;2022-07-17T08:21:36;101248.03;;;41.67
70668;BMP280;58242;51.250;-1.118;2022-07-17T08:24:02;101252.75;;;42.02
70668;BMP280;58242;51.250;-1.118;2022-07-17T08:26:27;101244.88;;;42.33
70668;BMP280;58242;51.250;-1.118;2022-07-17T08:28:53;101243.91;;;42.52
70668;BMP280;58242;51.250;-1.118;2022-07-17T08:31:18;101242.38;;;42.67
70668;BMP280;58242;51.250;-1.118;2022-07-17T08:33:43;101244.44;;;42.88
70668;BMP280;58242;51.250;-1.118;2022-07-17T08:36:09;101237.47;;;43.16
70668;BMP280;58242;51.250;-1.118;2022-07-17T08:38:34;101241.50;;;43.41
70668;BMP280;58242;51.250;-1.118;2022-07-17T08:41:00;101236.81;;;43.60
70668;BMP280;58242;51.250;-1.118;2022-07-17T08:43:25;101230.59;;;43.77
70668;BMP280;58242;51.250;-1.118;2022-07-17T08:45:51;101238.72;;;43.97
70668;BMP280;58242;51.250;-1.118;2022-07-17T08:48:17;101230.94;;;44.08
70668;BMP280;58242;51.250;-1.118;2022-07-17T08:50:43;101235.47;;;44.22
70668;BMP280;58242;51.250;-1.118;2022-07-17T08:53:09;101244.09;;;44.40
70668;BMP280;58242;51.250;-1.118;2022-07-17T08:55:36;101235.81;;;44.47
70668;BMP280;58242;51.250;-1.118;2022-07-17T08:58:02;101240.22;;;44.71
70668;BMP280;58242;51.250;-1.118;2022-07-17T09:00:29;101239.97;;;44.98
70668;BMP280;58242;51.250;-1.118;2022-07-17T09:05:26;101243.53;;;45.68
70668;BMP280;58242;51.250;-1.118;2022-07-17T09:07:53;101244.34;;;45.87
70668;BMP280;58242;51.250;-1.118;2022-07-17T09:10:29;101242.78;;;46.04
70668;BMP280;58242;51.250;-1.118;2022-07-17T09:12:55;101245.41;;;46.20
70668;BMP280;58242;51.250;-1.118;2022-07-17T09:15:20;101240.94;;;46.42
70668;BMP280;58242;51.250;-1.118;2022-07-17T09:17:53;101242.50;;;46.56
70668;BMP280;58242;51.250;-1.118;2022-07-17T09:20:20;101253.00;;;46.73
70668;BMP280;58242;51.250;-1.118;2022-07-17T09:23:00;101234.47;;;47.03
70668;BMP280;58242;51.250;-1.118;2022-07-17T09:25:33;101242.53;;;47.24
70668;BMP280;58242;51.250;-1.118;2022-07-17T09:28:01;101235.38;;;47.49
70668;BMP280;58242;51.250;-1.118;2022-07-17T09:30:27;101242.28;;;47.73
70668;BMP280;58242;51.250;-1.118;2022-07-17T09:32:54;101242.59;;;47.95
70668;BMP280;58242;51.250;-1.118;2022-07-17T09:35:21;101233.72;;;48.11
70668;BMP280;58242;51.250;-1.118;2022-07-17T09:37:46;101230.44;;;48.20
70668;BMP280;58242;51.250;-1.118;2022-07-17T09:40:13;101235.34;;;48.19
70668;BMP280;58242;51.250;-1.118;2022-07-17T09:42:58;101237.41;;;48.19
70668;BMP280;58242;51.250;-1.118;2022-07-17T09:45:23;101229.97;;;48.28
70668;BMP280;58242;51.250;-1.118;2022-07-17T09:47:51;101234.38;;;48.37
70668;BMP280;58242;51.250;-1.118;2022-07-17T09:50:18;101222.78;;;48.47
70668;BMP280;58242;51.250;-1.118;2022-07-17T09:52:45;101218.63;;;48.48
70668;BMP280;58242;51.250;-1.118;2022-07-17T09:55:11;101216.25;;;48.40
70668;BMP280;58242;51.250;-1.118;2022-07-17T09:57:40;101223.44;;;48.41
70668;BMP280;58242;51.250;-1.118;2022-07-17T10:00:08;101206.97;;;48.39
70668;BMP280;58242;51.250;-1.118;2022-07-17T10:02:43;101206.91;;;48.52
70668;BMP280;58242;51.250;-1.118;2022-07-17T10:05:10;101219.91;;;48.67
70668;BMP280;58242;51.250;-1.118;2022-07-17T10:07:44;101226.72;;;48.84
70668;BMP280;58242;51.250;-1.118;2022-07-17T10:10:11;101215.88;;;49.03
70668;BMP280;58242;51.250;-1.118;2022-07-17T10:12:38;101216.63;;;49.31
70668;BMP280;58242;51.250;-1.118;2022-07-17T10:15:05;101222.06;;;49.49
70668;BMP280;58242;51.250;-1.118;2022-07-17T10:17:31;101221.69;;;49.52
70668;BMP280;58242;51.250;-1.118;2022-07-17T10:19:57;101219.28;;;49.63
70668;BMP280;58242;51.250;-1.118;2022-07-17T10:22:24;101205.63;;;49.62
70668;BMP280;58242;51.250;-1.118;2022-07-17T10:24:51;101203.56;;;49.69
70668;BMP280;58242;51.250;-1.118;2022-07-17T10:27:27;101195.41;;;49.66
70668;BMP280;58242;51.250;-1.118;2022-07-17T10:30:08;101204.88;;;49.68
70668;BMP280;58242;51.250;-1.118;2022-07-17T10:32:36;101198.09;;;49.71
70668;BMP280;58242;51.250;-1.118;2022-07-17T10:35:03;101186.16;;;49.80
70668;BMP280;58242;51.250;-1.118;2022-07-17T10:42:52;101191.41;;;50.33
70668;BMP280;58242;51.250;-1.118;2022-07-17T10:50:23;101191.84;;;49.80
70668;BMP280;58242;51.250;-1.118;2022-07-17T10:52:57;101201.97;;;49.54
70668;BMP280;58242;51.250;-1.118;2022-07-17T10:55:22;101209.19;;;49.55
70668;BMP280;58242;51.250;-1.118;2022-07-17T10:57:48;101203.16;;;49.66
70668;BMP280;58242;51.250;-1.118;2022-07-17T11:00:15;101185.06;;;49.83
70668;BMP280;58242;51.250;-1.118;2022-07-17T11:02:41;101193.09;;;50.06
70668;BMP280;58242;51.250;-1.118;2022-07-17T11:05:12;101186.31;;;50.24
70668;BMP280;58242;51.250;-1.118;2022-07-17T11:07:58;101183.66;;;50.48
70668;BMP280;58242;51.250;-1.118;2022-07-17T11:10:26;101173.41;;;50.52
70668;BMP280;58242;51.250;-1.118;2022-07-17T11:13:08;101185.34;;;50.21
70668;BMP280;58242;51.250;-1.118;2022-07-17T11:15:38;101188.56;;;50.11
70668;BMP280;58242;51.250;-1.118;2022-07-17T11:18:10;101188.56;;;50.18
70668;BMP280;58242;51.250;-1.118;2022-07-17T11:20:56;101177.75;;;50.24
70668;BMP280;58242;51.250;-1.118;2022-07-17T11:23:24;101177.00;;;50.09
70668;BMP280;58242;51.250;-1.118;2022-07-17T11:25:54;101170.66;;;49.96
70668;BMP280;58242;51.250;-1.118;2022-07-17T11:28:42;101169.91;;;50.02
70668;BMP280;58242;51.250;-1.118;2022-07-17T11:33:47;101163.72;;;50.33
70668;BMP280;58242;51.250;-1.118;2022-07-17T11:36:19;101166.16;;;50.29
70668;BMP280;58242;51.250;-1.118;2022-07-17T11:38:45;101162.63;;;50.43
70668;BMP280;58242;51.250;-1.118;2022-07-17T11:41:11;101151.78;;;50.49
70668;BMP280;58242;51.250;-1.118;2022-07-17T11:43:40;101150.66;;;50.67
70668;BMP280;58242;51.250;-1.118;2022-07-17T11:46:07;101143.19;;;50.93
70668;BMP280;58242;51.250;-1.118;2022-07-17T11:48:32;101143.31;;;51.24
70668;BMP280;58242;51.250;-1.118;2022-07-17T11:50:58;101134.88;;;51.48
70668;BMP280;58242;51.250;-1.118;2022-07-17T11:53:34;101137.09;;;51.64
70668;BMP280;58242;51.250;-1.118;2022-07-17T11:56:00;101126.41;;;51.72
70668;BMP280;58242;51.250;-1.118;2022-07-17T11:58:26;101130.94;;;51.75
70668;BMP280;58242;51.250;-1.118;2022-07-17T12:01:03;101132.00;;;51.86
70668;BMP280;58242;51.250;-1.118;2022-07-17T12:03:28;101131.22;;;51.93
70668;BMP280;58242;51.250;-1.118;2022-07-17T12:05:54;101121.06;;;51.68
70668;BMP280;58242;51.250;-1.118;2022-07-17T12:08:21;101124.38;;;51.05
70668;BMP280;58242;51.250;-1.118;2022-07-17T12:10:47;101126.94;;;50.42
70668;BMP280;58242;51.250;-1.118;2022-07-17T12:13:13;101120.59;;;50.00
70668;BMP280;58242;51.250;-1.118;2022-07-17T12:18:40;101107.88;;;49.72
70668;BMP280;58242;51.250;-1.118;2022-07-17T12:21:05;101116.03;;;49.83
70668;BMP280;58242;51.250;-1.118;2022-07-17T12:23:32;101122.09;;;49.72
70668;BMP280;58242;51.250;-1.118;2022-07-17T12:26:08;101127.13;;;49.17
70668;BMP280;58242;51.250;-1.118;2022-07-17T12:28:34;101120.91;;;48.91
70668;BMP280;58242;51.250;-1.118;2022-07-17T12:31:01;101127.59;;;48.74
70668;BMP280;58242;51.250;-1.118;2022-07-17T12:33:27;101113.81;;;48.50
70668;BMP280;58242;51.250;-1.118;2022-07-17T12:35:52;101120.06;;;48.36
70668;BMP280;58242;51.250;-1.118;2022-07-17T12:38:17;101123.13;;;48.38
70668;BMP280;58242;51.250;-1.118;2022-07-17T12:40:43;101120.78;;;48.29
70668;BMP280;58242;51.250;-1.118;2022-07-17T12:43:08;101118.66;;;48.23
70668;BMP280;58242;51.250;-1.118;2022-07-17T12:45:34;101119.63;;;48.05
70668;BMP280;58242;51.250;-1.118;2022-07-17T12:47:59;101118.88;;;47.72
70668;BMP280;58242;51.250;-1.118;2022-07-17T12:50:25;101112.06;;;47.42
70668;BMP280;58242;51.250;-1.118;2022-07-17T12:52:50;101119.31;;;47.18
70668;BMP280;58242;51.250;-1.118;2022-07-17T12:55:16;101118.78;;;46.94
70668;BMP280;58242;51.250;-1.118;2022-07-17T12:57:41;101116.16;;;46.84
70668;BMP280;58242;51.250;-1.118;2022-07-17T13:00:07;101120.28;;;46.83
70668;BMP280;58242;51.250;-1.118;2022-07-17T13:02:33;101123.00;;;46.75
70668;BMP280;58242;51.250;-1.118;2022-07-17T13:04:58;101120.91;;;46.63
70668;BMP280;58242;51.250;-1.118;2022-07-17T13:07:23;101122.09;;;46.42
70668;BMP280;58242;51.250;-1.118;2022-07-17T13:09:49;101122.03;;;45.99
70668;BMP280;58242;51.250;-1.118;2022-07-17T13:12:14;101115.22;;;45.59
70668;BMP280;58242;51.250;-1.118;2022-07-17T13:14:40;101112.53;;;45.30
70668;BMP280;58242;51.250;-1.118;2022-07-17T13:17:05;101111.84;;;45.01
70668;BMP280;58242;51.250;-1.118;2022-07-17T13:19:31;101109.91;;;44.73
70668;BMP280;58242;51.250;-1.118;2022-07-17T13:21:56;101105.31;;;44.41
70668;BMP280;58242;51.250;-1.118;2022-07-17T13:24:22;101101.44;;;44.15
70668;BMP280;58242;51.250;-1.118;2022-07-17T13:26:47;101100.84;;;43.93
70668;BMP280;58242;51.250;-1.118;2022-07-17T13:29:13;101094.09;;;43.73
70668;BMP280;58242;51.250;-1.118;2022-07-17T13:31:38;101089.28;;;43.63
70668;BMP280;58242;51.250;-1.118;2022-07-17T13:34:03;101094.50;;;43.48
70668;BMP280;58242;51.250;-1.118;2022-07-17T13:36:29;101093.09;;;43.26
70668;BMP280;58242;51.250;-1.118;2022-07-17T13:38:54;101086.78;;;42.99
70668;BMP280;58242;51.250;-1.118;2022-07-17T13:41:20;101084.56;;;42.76
70668;BMP280;58242;51.250;-1.118;2022-07-17T13:43:45;101084.09;;;42.61
70668;BMP280;58242;51.250;-1.118;2022-07-17T13:46:10;101085.13;;;42.53
70668;BMP280;58242;51.250;-1.118;2022-07-17T13:48:36;101083.59;;;42.52
70668;BMP280;58242;51.250;-1.118;2022-07-17T13:51:01;101079.50;;;42.53
70668;BMP280;58242;51.250;-1.118;2022-07-17T13:53:27;101080.28;;;42.53
70668;BMP280;58242;51.250;-1.118;2022-07-17T13:55:54;101078.47;;;42.67
70668;BMP280;58242;51.250;-1.118;2022-07-17T13:58:19;101070.19;;;42.90